»·PEaware :: JBU727 KBOS-KBUF

JBU727 :: KBOS-KBUF

FLIGHT INFORMATION

Flight Status: Arrived
Operator:
JetBlue Airways
More flights by this operator :: More flights under this callsign
Pilot: Anonymous 5323 (5323)
Aircraft: BOEING 767-300
(B763)
More flights by this aircraft type
Origin: KBOS Logan Intl
United States
Destination: KBUF Buffalo Niagara Intl
United States
More flights between these airports :: More routes between these airports
Route: HYLND4 HYLND SYR ROC V510 EHMAN
File this flight plan on PilotEdge
Remarks:
Altitude:
(Current/Filed)
36,000ft
Speed:
(Current/Filed)
480kts
Departed: 16-Dec-15 06:15 PM
Arrived: 16-Dec-15 07:34 PM
Distance/Time
Traveled:
343nm/1:19
Distance/Time
To Go:
Arrived

Flight Plot

Page will automatically refresh every two minutes.


Map Options




Map Legend


Flown Route
Filed Route
Departure Airport
Arrival Airport
Navaid (VOR, NDB)
Fix

Horizontal Profiles

Position Reports

Time Latitude Longitude Heading Altitude Ground
Speed
16-Dec-15 17:28 42.362258 -71.024140 274 30ft 0kts
16-Dec-15 17:29 42.362258 -71.024140 274 30ft 0kts
16-Dec-15 17:30 42.362258 -71.024140 274 30ft 0kts
16-Dec-15 17:31 42.362258 -71.024140 274 30ft 0kts
16-Dec-15 17:32 42.362258 -71.024140 274 30ft 0kts
16-Dec-15 17:33 42.362258 -71.024140 274 30ft 0kts
16-Dec-15 17:34 42.362258 -71.024140 274 30ft 0kts
16-Dec-15 17:35 42.362258 -71.024140 274 30ft 0kts
16-Dec-15 17:36 42.362258 -71.024140 274 30ft 0kts
16-Dec-15 17:37 42.362258 -71.024140 274 30ft 0kts
16-Dec-15 17:38 42.362258 -71.024140 274 30ft 0kts
16-Dec-15 17:39 42.362258 -71.024140 274 30ft 0kts
16-Dec-15 17:40 42.362258 -71.024140 274 30ft 0kts
16-Dec-15 17:41 42.362258 -71.024140 274 30ft 0kts
16-Dec-15 17:42 42.362258 -71.024140 274 30ft 0kts
16-Dec-15 17:43 42.362258 -71.024140 274 30ft 0kts
16-Dec-15 17:44 42.362258 -71.024140 274 30ft 0kts
16-Dec-15 17:45 42.362258 -71.024140 274 30ft 0kts
16-Dec-15 17:46 42.362258 -71.024140 274 30ft 0kts
16-Dec-15 17:47 42.362258 -71.024140 274 30ft 0kts
16-Dec-15 17:48 42.362250 -71.024013 275 30ft 2kts
16-Dec-15 17:49 42.362360 -71.023495 185 30ft 0kts
16-Dec-15 17:50 42.362360 -71.023495 185 30ft 0kts
16-Dec-15 17:51 42.362360 -71.023495 185 30ft 0kts
16-Dec-15 17:52 42.360687 -71.023100 145 30ft 19kts
16-Dec-15 17:53 42.358328 -71.016937 101 30ft 16kts
16-Dec-15 17:54 42.362119 -71.013915 19 30ft 27kts
16-Dec-15 17:55 42.368645 -71.012445 314 30ft 22kts
16-Dec-15 17:56 42.373208 -71.018459 334 30ft 11kts
16-Dec-15 17:57 42.373283 -71.018497 355 30ft 0kts
16-Dec-15 17:58 42.373283 -71.018497 355 30ft 0kts
16-Dec-15 17:59 42.373283 -71.018497 355 30ft 0kts
16-Dec-15 18:00 42.373283 -71.018497 355 30ft 0kts
16-Dec-15 18:01 42.373283 -71.018497 355 30ft 0kts
16-Dec-15 18:02 42.373283 -71.018497 355 30ft 0kts
16-Dec-15 18:03 42.373283 -71.018497 355 30ft 0kts
16-Dec-15 18:04 42.373283 -71.018497 355 30ft 0kts
16-Dec-15 18:05 42.373283 -71.018497 355 30ft 0kts
16-Dec-15 18:06 42.373283 -71.018497 355 30ft 0kts
16-Dec-15 18:07 42.373283 -71.018497 355 30ft 0kts
16-Dec-15 18:08 42.373283 -71.018497 355 30ft 0kts
16-Dec-15 18:09 42.373283 -71.018497 355 30ft 0kts
16-Dec-15 18:10 42.374054 -71.017696 98 30ft 6kts
16-Dec-15 18:11 42.353497 -70.989259 127 1484ft 171kts
16-Dec-15 18:12 42.322589 -70.920739 117 4316ft 240kts
16-Dec-15 18:13 42.328712 -70.830311 80 8182ft 268kts
16-Dec-15 18:14 42.367126 -70.742954 17 10729ft 321kts
16-Dec-15 18:15 42.464091 -70.724866 338 13680ft 368kts
16-Dec-15 18:16 42.547550 -70.797366 300 17580ft 360kts
16-Dec-15 18:17 42.604231 -70.911312 298 21112ft 373kts
16-Dec-15 18:18 42.661942 -71.029935 298 24161ft 386kts
16-Dec-15 18:19 42.721793 -71.152938 297 26857ft 399kts
16-Dec-15 18:20 42.777998 -71.283297 283 29265ft 401kts
16-Dec-15 18:21 42.796040 -71.431962 275 31972ft 393kts
16-Dec-15 18:22 42.810221 -71.575983 275 34571ft 380kts
16-Dec-15 18:23 42.823695 -71.717413 275 36126ft 376kts
16-Dec-15 18:24 42.836934 -71.858623 275 36114ft 377kts
16-Dec-15 18:25 42.849255 -71.991649 273 36107ft 376kts
16-Dec-15 18:26 42.861825 -72.128209 272 36125ft 367kts
16-Dec-15 18:27 42.874700 -72.265791 272 36131ft 365kts
16-Dec-15 18:28 42.886884 -72.402244 272 36129ft 365kts
16-Dec-15 18:29 42.898874 -72.538938 272 36127ft 365kts
16-Dec-15 18:30 42.910707 -72.675836 272 36123ft 364kts
16-Dec-15 18:31 42.922390 -72.812918 272 36107ft 363kts
16-Dec-15 18:32 42.933752 -72.948206 272 36079ft 362kts
16-Dec-15 18:33 42.945049 -73.084747 272 36062ft 362kts
16-Dec-15 18:34 42.956572 -73.219732 271 36069ft 362kts
16-Dec-15 18:35 42.967639 -73.355916 271 36067ft 362kts
16-Dec-15 18:36 42.978452 -73.492334 271 36066ft 361kts
16-Dec-15 18:37 42.988882 -73.626135 271 36072ft 358kts
16-Dec-15 18:38 42.999210 -73.760722 271 36075ft 356kts
16-Dec-15 18:39 43.009306 -73.894359 271 36074ft 356kts
16-Dec-15 18:40 43.019286 -74.028585 271 36072ft 356kts
16-Dec-15 18:41 43.029446 -74.162996 271 36089ft 356kts
16-Dec-15 18:42 43.039397 -74.297414 271 36087ft 356kts
16-Dec-15 18:43 43.048966 -74.432059 271 36084ft 356kts
16-Dec-15 18:44 43.058319 -74.566402 271 36077ft 356kts
16-Dec-15 18:45 43.067535 -74.701160 271 36059ft 357kts
16-Dec-15 18:46 43.076568 -74.835589 271 36026ft 358kts
16-Dec-15 18:47 43.085496 -74.970598 270 36010ft 357kts
16-Dec-15 18:48 43.094242 -75.105469 268 36010ft 357kts
16-Dec-15 18:49 43.103368 -75.240584 268 36024ft 357kts
16-Dec-15 18:50 43.111825 -75.374684 268 36022ft 357kts
16-Dec-15 18:51 43.120068 -75.509084 268 36019ft 357kts
16-Dec-15 18:52 43.128167 -75.643956 268 36011ft 357kts
16-Dec-15 18:53 43.136174 -75.780027 268 35978ft 359kts
16-Dec-15 18:54 43.144043 -75.916510 268 35957ft 360kts
16-Dec-15 18:55 43.151737 -76.052809 268 35954ft 360kts
16-Dec-15 18:56 43.159680 -76.188891 268 35963ft 359kts
16-Dec-15 18:57 43.157946 -76.323210 263 35950ft 356kts
16-Dec-15 18:58 43.154595 -76.458145 263 35942ft 356kts
16-Dec-15 18:59 43.151076 -76.593291 263 35935ft 356kts
16-Dec-15 19:00 43.147392 -76.728618 263 35929ft 356kts
16-Dec-15 19:01 43.143710 -76.860268 262 34581ft 330kts
16-Dec-15 19:02 43.139875 -76.988834 262 33252ft 342kts
16-Dec-15 19:03 43.136522 -77.098534 262 32038ft 349kts
16-Dec-15 19:04 43.132823 -77.231966 262 30615ft 356kts
16-Dec-15 19:05 43.128472 -77.368332 261 29066ft 360kts
16-Dec-15 19:06 43.123931 -77.502959 259 27498ft 354kts
16-Dec-15 19:07 43.119232 -77.636181 258 25961ft 350kts
16-Dec-15 19:08 43.121496 -77.770329 263 24404ft 352kts
16-Dec-15 19:09 43.126393 -77.903252 263 22853ft 348kts
16-Dec-15 19:10 43.131052 -78.035135 263 21318ft 344kts
16-Dec-15 19:11 43.135779 -78.164342 263 19812ft 341kts
16-Dec-15 19:12 43.140219 -78.293076 263 18270ft 337kts
16-Dec-15 19:13 43.121534 -78.411436 239 16753ft 315kts
16-Dec-15 19:14 43.084152 -78.518760 239 15243ft 311kts
16-Dec-15 19:15 43.046489 -78.624881 239 13715ft 309kts
16-Dec-15 19:16 43.009107 -78.729653 239 12182ft 306kts
16-Dec-15 19:17 42.971632 -78.834416 238 9966ft 286kts
16-Dec-15 19:18 42.940304 -78.921634 237 8168ft 247kts
16-Dec-15 19:19 42.909772 -79.006210 237 7911ft 254kts
16-Dec-15 19:20 42.878031 -79.093959 238 7047ft 263kts
16-Dec-15 19:21 42.886282 -79.185053 333 4694ft 261kts
16-Dec-15 19:22 42.935812 -79.149052 69 3553ft 238kts
16-Dec-15 19:23 42.959440 -79.064257 64 3155ft 237kts
16-Dec-15 19:24 42.997701 -79.002280 45 3045ft 188kts
16-Dec-15 19:25 43.004164 -78.941630 97 2333ft 178kts
16-Dec-15 19:26 42.998702 -78.874708 98 2307ft 178kts
16-Dec-15 19:27 42.985099 -78.812473 127 2274ft 159kts
16-Dec-15 19:28 42.961420 -78.768469 127 1277ft 139kts
16-Dec-15 19:29 42.939658 -78.728428 127 735ft 70kts
16-Dec-15 19:30 42.936745 -78.725572 304 735ft 11kts
16-Dec-15 19:31 42.937388 -78.730765 228 735ft 17kts
16-Dec-15 19:32 42.935577 -78.731835 136 735ft 0kts
16-Dec-15 19:33 42.942021 -78.732698 127 736ft 124kts
16-Dec-15 19:34 42.940346 -78.729683 126 736ft 93kts
16-Dec-15 19:35 42.935577 -78.731835 136 735ft 0kts
16-Dec-15 19:36 42.935577 -78.731835 136 735ft 0kts

Navigation Log

Ident Type
Flight plan parsing failed, navigation log unavailable